createdAt,value
2022-07-31T00:00:23.940Z,58.47
2022-07-31T00:02:51.664Z,58.35
2022-07-31T00:05:19.426Z,58.94
2022-07-31T00:07:47.146Z,58.87
2022-07-31T00:10:15.051Z,59.04
2022-07-31T00:12:44.025Z,59.06
2022-07-31T00:15:12.949Z,58.92
2022-07-31T00:17:41.433Z,58.93
2022-07-31T00:20:13.278Z,59.02
2022-07-31T00:22:40.993Z,59.30
2022-07-31T00:25:10.062Z,59.30
2022-07-31T00:27:37.693Z,59.51
2022-07-31T00:30:08.626Z,59.75
2022-07-31T00:32:36.336Z,60.31
2022-07-31T00:35:04.017Z,60.56
2022-07-31T00:37:31.804Z,61.09
2022-07-31T00:39:59.452Z,60.87
2022-07-31T00:42:27.553Z,61.06
2022-07-31T00:44:55.781Z,61.02
2022-07-31T00:47:25.637Z,60.95
2022-07-31T00:49:53.596Z,61.40
2022-07-31T00:52:30.915Z,61.28
2022-07-31T00:55:01.556Z,61.38
2022-07-31T00:57:29.389Z,61.46
2022-07-31T00:59:57.239Z,62.16
2022-07-31T01:02:26.343Z,62.04
2022-07-31T01:04:54.063Z,62.34
2022-07-31T01:07:21.767Z,62.44
2022-07-31T01:09:50.605Z,62.57
2022-07-31T01:12:26.995Z,62.77
2022-07-31T01:14:59.007Z,63.26
2022-07-31T01:17:32.078Z,63.02
2022-07-31T01:20:00.842Z,63.36
2022-07-31T01:22:46.556Z,63.35
2022-07-31T01:25:37.786Z,63.61
2022-07-31T01:28:33.186Z,63.67
2022-07-31T01:34:02.753Z,64.11
2022-07-31T01:36:34.682Z,64.21
2022-07-31T01:39:03.764Z,64.63
2022-07-31T01:41:41.870Z,65.02
2022-07-31T01:44:14.230Z,64.68
2022-07-31T01:46:44.697Z,65.14
2022-07-31T01:49:14.674Z,65.13
2022-07-31T01:51:45.132Z,65.44
2022-07-31T01:54:14.548Z,65.42
2022-07-31T01:56:43.169Z,65.79
2022-07-31T01:59:20.640Z,65.95
2022-07-31T02:02:16.928Z,65.96
2022-07-31T02:04:47.019Z,66.59
2022-07-31T02:07:16.423Z,66.49
2022-07-31T02:09:57.905Z,66.39
2022-07-31T02:12:31.759Z,66.26
2022-07-31T02:15:02.270Z,66.41
2022-07-31T02:17:31.709Z,66.62
2022-07-31T02:20:18.247Z,66.51
2022-07-31T02:22:46.188Z,66.59
2022-07-31T02:25:13.920Z,66.68
2022-07-31T02:27:57.040Z,67.02
2022-07-31T02:30:39.689Z,67.07
2022-07-31T02:33:14.646Z,67.00
2022-07-31T02:35:45.418Z,66.91
2022-07-31T02:38:22.960Z,67.10
2022-07-31T02:40:56.375Z,67.58
2022-07-31T02:43:25.873Z,67.63
2022-07-31T02:45:57.631Z,67.64
2022-07-31T02:48:27.945Z,67.69
2022-07-31T02:50:59.852Z,67.64
2022-07-31T02:53:28.066Z,68.33
2022-07-31T02:56:01.046Z,67.78
2022-07-31T02:58:32.893Z,67.95
2022-07-31T03:01:01.778Z,67.98
2022-07-31T03:03:34.345Z,67.75
2022-07-31T03:06:02.022Z,68.38
2022-07-31T03:08:29.891Z,68.22
2022-07-31T03:11:01.499Z,68.23
2022-07-31T03:13:31.417Z,68.42
2022-07-31T03:15:59.750Z,68.53
2022-07-31T03:18:28.330Z,69.05
2022-07-31T03:20:57.752Z,69.19
2022-07-31T03:23:27.345Z,69.13
2022-07-31T03:26:03.265Z,69.80
2022-07-31T03:28:31.030Z,69.38
2022-07-31T03:30:58.653Z,69.50
2022-07-31T03:33:29.864Z,69.33
2022-07-31T03:35:58.980Z,69.38
2022-07-31T03:38:39.077Z,69.42
2022-07-31T03:41:18.483Z,69.77
2022-07-31T03:43:48.643Z,69.83
2022-07-31T03:46:22.922Z,69.69
2022-07-31T03:48:52.641Z,69.05
2022-07-31T03:51:23.181Z,69.05
2022-07-31T03:53:51.544Z,68.84
2022-07-31T03:56:39.142Z,68.62
2022-07-31T03:59:07.557Z,69.04
2022-07-31T04:01:57.436Z,68.90
2022-07-31T04:04:35.393Z,69.21
2022-07-31T04:07:06.909Z,68.96
2022-07-31T04:09:34.841Z,69.27
2022-07-31T04:12:05.431Z,69.34
2022-07-31T04:14:33.323Z,69.54
2022-07-31T04:17:01.011Z,69.73
2022-07-31T04:19:30.915Z,69.64
2022-07-31T04:21:58.784Z,69.74
2022-07-31T04:24:28.502Z,69.73
2022-07-31T04:27:17.397Z,70.01
2022-07-31T04:29:45.847Z,69.51
2022-07-31T04:32:13.750Z,69.30
2022-07-31T04:34:53.774Z,68.86
2022-07-31T04:37:21.596Z,68.55
2022-07-31T04:39:50.620Z,68.20
2022-07-31T04:42:18.422Z,68.24
2022-07-31T04:44:46.108Z,68.29
2022-07-31T04:47:14.031Z,68.07
2022-07-31T04:49:44.715Z,67.92
2022-07-31T04:52:15.557Z,67.86
2022-07-31T04:54:46.156Z,67.58
2022-07-31T04:57:21.386Z,67.18
2022-07-31T04:59:59.609Z,67.00
2022-07-31T05:02:31.489Z,66.94
2022-07-31T05:04:59.202Z,66.19
2022-07-31T05:07:32.816Z,66.34
2022-07-31T05:10:05.443Z,65.80
2022-07-31T05:12:34.980Z,65.54
2022-07-31T05:15:02.681Z,65.90
2022-07-31T05:17:30.369Z,65.34
2022-07-31T05:20:19.240Z,65.00
2022-07-31T05:23:06.496Z,64.82
2022-07-31T05:25:52.785Z,64.58
2022-07-31T05:28:30.111Z,64.04
2022-07-31T05:30:58.809Z,63.97
2022-07-31T05:33:28.373Z,64.03
2022-07-31T05:35:56.511Z,63.56
2022-07-31T05:38:24.320Z,63.24
2022-07-31T05:41:33.248Z,63.07
2022-07-31T05:44:19.768Z,62.23
2022-07-31T05:46:48.063Z,61.70
2022-07-31T05:49:15.923Z,62.48
2022-07-31T05:51:46.492Z,61.94
2022-07-31T05:54:14.233Z,61.80
2022-07-31T05:57:32.915Z,61.25
2022-07-31T06:00:03.832Z,60.78
2022-07-31T06:02:39.411Z,60.46
2022-07-31T06:05:17.209Z,60.08
2022-07-31T06:07:51.844Z,60.07
2022-07-31T06:10:20.495Z,60.19
2022-07-31T06:12:48.516Z,59.80
2022-07-31T06:15:17.653Z,60.02
2022-07-31T06:17:45.905Z,59.90
2022-07-31T06:20:24.694Z,59.54
2022-07-31T06:22:53.066Z,59.62
2022-07-31T06:25:20.800Z,59.18
2022-07-31T06:27:55.131Z,58.99
2022-07-31T06:30:29.333Z,58.76
2022-07-31T06:32:56.961Z,58.61
2022-07-31T06:35:25.070Z,58.37
2022-07-31T06:38:19.648Z,58.01
2022-07-31T06:41:33.261Z,58.07
2022-07-31T06:44:21.197Z,58.05
2022-07-31T06:47:13.687Z,57.68
2022-07-31T06:50:08.410Z,57.26
2022-07-31T06:52:41.569Z,57.48
2022-07-31T06:55:10.119Z,57.05
2022-07-31T06:57:38.806Z,56.58
2022-07-31T07:00:15.157Z,56.25
2022-07-31T07:02:49.997Z,55.69
2022-07-31T07:05:17.997Z,55.61
2022-07-31T07:07:48.818Z,54.94
2022-07-31T07:10:16.644Z,54.88
2022-07-31T07:12:59.436Z,54.84
2022-07-31T07:15:28.998Z,54.92
2022-07-31T07:17:58.100Z,54.74
2022-07-31T07:20:44.521Z,54.43
2022-07-31T07:23:12.956Z,54.51
2022-07-31T07:25:53.735Z,54.27
2022-07-31T07:28:30.562Z,54.59
2022-07-31T07:31:01.580Z,54.05
2022-07-31T07:33:41.215Z,53.90
2022-07-31T07:36:22.834Z,52.66
2022-07-31T07:39:01.802Z,53.46
2022-07-31T07:41:30.857Z,53.07
2022-07-31T07:43:59.815Z,52.24
2022-07-31T07:46:29.782Z,50.81
2022-07-31T07:49:02.443Z,49.25
2022-07-31T07:52:00.447Z,48.79
2022-07-31T07:54:48.326Z,48.60
2022-07-31T07:57:48.101Z,48.55
2022-07-31T08:00:16.576Z,48.38
2022-07-31T08:03:46.883Z,47.94
2022-07-31T08:05:35.788Z,47.40
2022-07-31T08:08:05.633Z,47.67
2022-07-31T08:10:40.977Z,47.33
2022-07-31T08:13:16.512Z,47.44
2022-07-31T08:16:02.704Z,47.94
2022-07-31T08:18:34.189Z,47.39
2022-07-31T08:21:03.261Z,47.04
2022-07-31T08:23:30.908Z,47.13
2022-07-31T08:25:58.726Z,47.13
2022-07-31T08:28:26.933Z,46.70
2022-07-31T08:30:54.980Z,46.62
2022-07-31T08:33:24.278Z,45.91
2022-07-31T08:35:56.127Z,45.42
2022-07-31T08:38:25.332Z,46.97
2022-07-31T08:41:14.525Z,46.23
2022-07-31T08:44:00.099Z,45.70
2022-07-31T08:46:31.492Z,45.29
2022-07-31T08:49:01.961Z,43.11
2022-07-31T08:51:31.830Z,40.57
2022-07-31T08:54:16.993Z,36.88
2022-07-31T08:56:46.318Z,37.32
2022-07-31T08:59:17.390Z,37.83
2022-07-31T09:01:45.851Z,37.28
2022-07-31T09:04:13.632Z,37.71
2022-07-31T09:06:42.677Z,37.46
2022-07-31T09:09:10.460Z,37.35
2022-07-31T09:11:48.965Z,37.80
2022-07-31T09:14:36.297Z,37.65
2022-07-31T09:17:09.308Z,37.28
2022-07-31T09:19:52.651Z,36.49
2022-07-31T09:22:29.512Z,36.67
2022-07-31T09:25:12.850Z,36.69
2022-07-31T09:27:42.535Z,37.17
2022-07-31T09:30:11.668Z,37.59
2022-07-31T09:32:58.171Z,36.55
2022-07-31T09:35:49.804Z,36.37
2022-07-31T09:38:18.121Z,35.34
2022-07-31T09:41:53.395Z,35.09
2022-07-31T09:44:25.987Z,34.67
2022-07-31T09:46:54.324Z,34.25
2022-07-31T09:49:31.480Z,34.41
2022-07-31T09:52:00.431Z,34.83
2022-07-31T09:54:31.248Z,34.17
2022-07-31T09:57:12.239Z,33.53
2022-07-31T09:59:52.363Z,33.63
2022-07-31T10:02:21.255Z,33.31
2022-07-31T10:04:52.195Z,32.42
2022-07-31T10:07:32.205Z,32.56
2022-07-31T10:10:13.361Z,32.00
2022-07-31T10:12:56.443Z,32.74
2022-07-31T10:15:27.348Z,32.15
2022-07-31T10:18:14.022Z,33.27
2022-07-31T10:21:08.512Z,32.21
2022-07-31T10:23:51.089Z,32.14
2022-07-31T10:26:21.406Z,31.21
2022-07-31T10:28:50.505Z,31.75
2022-07-31T10:31:20.158Z,32.77
2022-07-31T10:33:48.529Z,32.16
2022-07-31T10:36:37.751Z,32.56
2022-07-31T10:39:32.343Z,31.36
2022-07-31T10:42:13.780Z,31.27
2022-07-31T10:44:46.454Z,30.96
2022-07-31T10:47:26.088Z,31.37
2022-07-31T10:50:21.782Z,30.75
2022-07-31T10:53:21.493Z,31.37
2022-07-31T10:56:13.841Z,30.27
2022-07-31T10:59:13.012Z,29.42
2022-07-31T11:02:00.520Z,30.99
2022-07-31T11:04:42.341Z,30.26
2022-07-31T11:07:19.744Z,30.68
2022-07-31T11:10:10.013Z,30.80
2022-07-31T11:13:04.293Z,31.46
2022-07-31T11:16:04.405Z,31.26
2022-07-31T11:19:06.209Z,31.24
2022-07-31T11:21:38.929Z,31.27
2022-07-31T11:24:14.306Z,30.79
2022-07-31T11:26:52.435Z,31.51
2022-07-31T11:30:01.217Z,30.85
2022-07-31T11:32:16.668Z,31.49
2022-07-31T11:34:47.483Z,30.64
2022-07-31T11:37:20.423Z,30.54
2022-07-31T11:39:51.382Z,30.85
2022-07-31T11:42:25.330Z,30.40
2022-07-31T11:45:10.793Z,30.96
2022-07-31T11:48:12.293Z,30.97
2022-07-31T11:50:30.535Z,31.27
2022-07-31T11:53:06.837Z,30.88
2022-07-31T11:55:45.382Z,31.35
2022-07-31T11:58:13.103Z,30.36
2022-07-31T12:00:46.711Z,30.88
2022-07-31T12:03:14.444Z,29.92
2022-07-31T12:05:46.392Z,29.27
2022-07-31T12:08:15.910Z,29.35
2022-07-31T12:10:44.208Z,28.47
2022-07-31T12:13:16.066Z,29.06
2022-07-31T12:15:58.662Z,27.63
2022-07-31T12:18:27.715Z,27.39
2022-07-31T12:20:57.597Z,27.09
2022-07-31T12:23:40.608Z,27.25
2022-07-31T12:26:11.513Z,27.06
2022-07-31T12:28:39.316Z,26.12
2022-07-31T12:31:07.003Z,25.64
2022-07-31T12:33:41.980Z,26.88
2022-07-31T12:36:14.260Z,26.66
2022-07-31T12:38:45.080Z,26.58
2022-07-31T12:41:13.814Z,26.62
2022-07-31T12:43:43.859Z,26.53
2022-07-31T12:46:20.040Z,27.09
2022-07-31T12:48:47.795Z,26.41
2022-07-31T12:51:16.775Z,24.87
2022-07-31T12:53:45.750Z,24.74
2022-07-31T12:56:13.444Z,24.32
2022-07-31T12:58:41.036Z,24.04
2022-07-31T13:01:08.715Z,24.14
2022-07-31T13:03:45.660Z,24.00
2022-07-31T13:06:14.397Z,23.29
2022-07-31T13:08:43.640Z,22.74
2022-07-31T13:11:12.596Z,22.03
2022-07-31T13:13:40.271Z,21.38
2022-07-31T13:16:07.991Z,22.28
2022-07-31T13:18:35.804Z,21.10
2022-07-31T13:21:03.434Z,22.21
2022-07-31T13:23:31.449Z,23.44
2022-07-31T13:26:00.606Z,24.49
2022-07-31T13:28:29.572Z,23.51
2022-07-31T13:30:57.233Z,24.75
2022-07-31T13:33:24.829Z,24.25
2022-07-31T13:35:52.606Z,22.53
2022-07-31T13:38:20.208Z,21.02
2022-07-31T13:41:05.305Z,19.36
2022-07-31T13:43:34.294Z,18.55
2022-07-31T13:46:01.898Z,19.76
2022-07-31T13:48:29.475Z,20.93
2022-07-31T13:50:57.067Z,20.39
2022-07-31T13:53:24.695Z,20.47
2022-07-31T13:55:53.819Z,20.61
2022-07-31T13:58:21.737Z,19.94
2022-07-31T14:00:50.723Z,20.11
2022-07-31T14:03:18.326Z,21.36
2022-07-31T14:05:48.095Z,21.39
2022-07-31T14:08:32.636Z,22.26
2022-07-31T14:11:05.159Z,21.42
2022-07-31T14:13:43.007Z,22.03
2022-07-31T14:16:11.973Z,21.55
2022-07-31T14:18:39.604Z,20.16
2022-07-31T14:21:08.379Z,19.73
2022-07-31T14:23:40.526Z,16.85
2022-07-31T14:26:08.622Z,16.42
2022-07-31T14:28:36.419Z,15.69
2022-07-31T14:31:04.486Z,17.44
2022-07-31T14:33:33.490Z,18.26
2022-07-31T14:36:01.084Z,17.69
2022-07-31T14:38:28.867Z,16.59
2022-07-31T14:40:56.719Z,18.18
2022-07-31T14:43:24.459Z,18.51
2022-07-31T14:45:52.415Z,17.83
2022-07-31T14:48:20.718Z,17.61
2022-07-31T14:50:49.752Z,19.06
2022-07-31T14:53:17.412Z,21.20
2022-07-31T14:55:45.075Z,20.58
2022-07-31T14:58:12.680Z,19.51
2022-07-31T15:00:40.335Z,20.70
2022-07-31T15:03:08.060Z,20.46
2022-07-31T15:06:48.809Z,20.69
2022-07-31T15:08:25.020Z,21.48
2022-07-31T15:10:52.598Z,21.48
2022-07-31T15:13:20.436Z,21.56
2022-07-31T15:15:48.438Z,20.91
2022-07-31T15:18:16.134Z,19.60
2022-07-31T15:20:43.829Z,20.95
2022-07-31T15:23:11.456Z,22.64
2022-07-31T15:25:40.489Z,24.99
2022-07-31T15:28:08.118Z,24.19
2022-07-31T15:30:35.780Z,23.68
2022-07-31T15:33:03.763Z,22.88
2022-07-31T15:35:31.644Z,22.56
2022-07-31T15:37:59.436Z,22.87
2022-07-31T15:40:27.385Z,21.33
2022-07-31T15:42:56.585Z,19.28
2022-07-31T15:45:24.345Z,17.64
2022-07-31T15:47:52.145Z,15.50
2022-07-31T15:50:20.575Z,16.71
2022-07-31T15:53:13.646Z,17.85
2022-07-31T15:55:52.850Z,19.36
2022-07-31T15:58:32.384Z,20.03
2022-07-31T16:01:02.256Z,21.66
2022-07-31T16:03:50.669Z,20.78
2022-07-31T16:06:20.860Z,19.62
2022-07-31T16:08:55.856Z,16.74
2022-07-31T16:11:23.561Z,15.22
2022-07-31T16:14:12.456Z,14.73
2022-07-31T16:16:44.195Z,14.69
2022-07-31T16:19:13.397Z,13.32
2022-07-31T16:21:42.920Z,13.15
2022-07-31T16:24:10.502Z,12.53
2022-07-31T16:26:39.988Z,12.70
2022-07-31T16:29:09.795Z,13.00
2022-07-31T16:31:46.543Z,14.09
2022-07-31T16:34:14.166Z,14.27
2022-07-31T16:36:41.722Z,14.36
2022-07-31T16:39:19.926Z,14.42
2022-07-31T16:41:54.587Z,14.75
2022-07-31T16:44:22.860Z,15.17
2022-07-31T16:46:54.944Z,14.91
2022-07-31T16:49:35.473Z,14.31
2022-07-31T16:52:05.273Z,13.72
2022-07-31T16:54:32.916Z,12.46
2022-07-31T16:57:00.528Z,13.59
2022-07-31T16:59:28.159Z,14.30
2022-07-31T17:02:01.114Z,13.94
2022-07-31T17:04:29.348Z,13.80
2022-07-31T17:06:57.217Z,13.79
2022-07-31T17:09:25.119Z,14.89
2022-07-31T17:11:55.440Z,15.47
2022-07-31T17:14:25.158Z,15.52
2022-07-31T17:16:54.552Z,14.94
2022-07-31T17:19:36.658Z,15.10
2022-07-31T17:22:17.899Z,15.28
2022-07-31T17:24:50.159Z,14.31
2022-07-31T17:27:18.473Z,13.61
2022-07-31T17:29:46.235Z,12.78
2022-07-31T17:32:13.865Z,12.65
2022-07-31T17:34:45.011Z,12.64
2022-07-31T17:37:13.143Z,13.86
2022-07-31T17:39:40.775Z,13.74
2022-07-31T17:42:09.396Z,14.50
2022-07-31T17:44:37.344Z,13.78
2022-07-31T17:47:05.569Z,13.63
2022-07-31T17:49:34.314Z,14.18
2022-07-31T17:52:03.391Z,15.57
2022-07-31T17:54:32.431Z,15.16
2022-07-31T17:57:00.540Z,14.75
2022-07-31T17:59:28.431Z,14.13
2022-07-31T18:02:00.012Z,13.95
2022-07-31T18:04:28.414Z,13.39
2022-07-31T18:06:56.145Z,13.77
2022-07-31T18:09:25.566Z,14.99
2022-07-31T18:11:55.044Z,13.91
2022-07-31T18:14:24.763Z,14.46
2022-07-31T18:16:52.740Z,15.81
2022-07-31T18:19:21.261Z,16.57
2022-07-31T18:21:48.951Z,16.53
2022-07-31T18:24:16.602Z,16.61
2022-07-31T18:26:45.793Z,17.06
2022-07-31T18:29:13.526Z,19.11
2022-07-31T18:31:41.193Z,20.34
2022-07-31T18:34:09.044Z,20.66
2022-07-31T18:36:38.843Z,21.84
2022-07-31T18:39:07.335Z,23.08
2022-07-31T18:41:35.025Z,23.70
2022-07-31T18:44:04.083Z,24.14
2022-07-31T18:46:32.964Z,24.79
2022-07-31T18:49:01.290Z,25.46
2022-07-31T18:51:30.634Z,25.68
2022-07-31T18:53:58.561Z,26.63
2022-07-31T18:56:27.065Z,27.12
2022-07-31T18:58:55.527Z,28.14
2022-07-31T19:01:24.776Z,27.29
2022-07-31T19:03:53.292Z,28.55
2022-07-31T19:06:22.569Z,28.23
2022-07-31T19:08:51.855Z,28.17
2022-07-31T19:11:19.853Z,28.58
2022-07-31T19:13:47.890Z,29.03
2022-07-31T19:16:15.819Z,29.06
2022-07-31T19:18:49.330Z,29.64
2022-07-31T19:21:41.119Z,30.07
2022-07-31T19:24:07.736Z,30.33
2022-07-31T19:26:35.464Z,30.89
2022-07-31T19:29:03.145Z,31.37
2022-07-31T19:31:30.799Z,31.50
2022-07-31T19:33:59.752Z,32.29
2022-07-31T19:36:27.448Z,32.21
2022-07-31T19:38:55.041Z,32.72
2022-07-31T19:41:22.724Z,32.33
2022-07-31T19:43:50.780Z,32.83
2022-07-31T19:46:18.779Z,33.35
2022-07-31T19:48:47.236Z,33.16
2022-07-31T19:51:16.336Z,34.90
2022-07-31T19:53:44.691Z,36.37
2022-07-31T19:56:20.170Z,35.57
2022-07-31T19:58:49.422Z,36.07
2022-07-31T20:01:19.848Z,36.51
2022-07-31T20:03:47.676Z,37.23
2022-07-31T20:06:17.758Z,38.13
2022-07-31T20:08:45.386Z,38.03
2022-07-31T20:11:13.351Z,38.28
2022-07-31T20:13:41.023Z,38.55
2022-07-31T20:16:08.656Z,39.12
2022-07-31T20:18:36.561Z,39.29
2022-07-31T20:21:07.713Z,39.37
2022-07-31T20:23:38.663Z,39.35
2022-07-31T20:26:06.992Z,40.38
2022-07-31T20:28:34.857Z,39.94
2022-07-31T20:31:02.634Z,40.12
2022-07-31T20:33:30.256Z,41.50
2022-07-31T20:35:57.897Z,41.79
2022-07-31T20:38:25.639Z,42.43
2022-07-31T20:40:56.112Z,42.06
2022-07-31T20:43:25.367Z,41.64
2022-07-31T20:45:53.610Z,42.50
2022-07-31T20:48:24.538Z,42.48
2022-07-31T20:50:53.266Z,42.83
2022-07-31T20:53:21.956Z,43.25
2022-07-31T20:55:50.338Z,43.36
2022-07-31T20:58:19.488Z,43.93
2022-07-31T21:00:47.609Z,43.76
2022-07-31T21:03:15.552Z,44.14
2022-07-31T21:05:43.839Z,44.32
2022-07-31T21:08:12.065Z,45.20
2022-07-31T21:10:40.623Z,44.61
2022-07-31T21:13:08.507Z,44.92
2022-07-31T21:15:42.010Z,45.51
2022-07-31T21:18:12.597Z,45.89
2022-07-31T21:20:50.649Z,45.87
2022-07-31T21:23:22.682Z,45.96
2022-07-31T21:25:51.209Z,46.27
2022-07-31T21:28:19.473Z,46.83
2022-07-31T21:30:48.623Z,47.49
2022-07-31T21:33:17.873Z,47.53
2022-07-31T21:35:46.511Z,47.35
2022-07-31T21:38:15.817Z,47.28
2022-07-31T21:40:44.183Z,47.42
2022-07-31T21:43:16.770Z,47.42
2022-07-31T21:45:55.262Z,47.71
2022-07-31T21:48:27.720Z,48.17
2022-07-31T21:50:55.925Z,48.24
2022-07-31T21:53:23.973Z,47.90
2022-07-31T21:55:52.065Z,48.58
2022-07-31T21:58:19.818Z,48.63
2022-07-31T22:00:48.879Z,48.12
2022-07-31T22:03:16.592Z,48.41
2022-07-31T22:06:01.731Z,49.50
2022-07-31T22:08:29.324Z,49.04
2022-07-31T22:10:56.972Z,49.32
2022-07-31T22:13:24.584Z,49.01
2022-07-31T22:15:59.891Z,49.26
2022-07-31T22:18:30.050Z,48.98
2022-07-31T22:20:57.967Z,49.77
2022-07-31T22:23:26.948Z,49.58
2022-07-31T22:25:55.306Z,49.19
2022-07-31T22:28:23.845Z,49.66
2022-07-31T22:30:53.781Z,49.26
2022-07-31T22:33:21.941Z,49.75
2022-07-31T22:36:00.274Z,49.73
2022-07-31T22:38:30.571Z,50.64
2022-07-31T22:40:58.644Z,50.79
2022-07-31T22:44:10.389Z,50.61
2022-07-31T22:46:16.380Z,50.50
2022-07-31T22:48:45.993Z,50.80
2022-07-31T22:51:14.963Z,50.91
2022-07-31T22:53:43.272Z,51.13
2022-07-31T22:56:10.905Z,50.62
2022-07-31T22:58:38.473Z,50.61
2022-07-31T23:01:06.156Z,50.71
2022-07-31T23:03:35.126Z,50.30
2022-07-31T23:06:30.749Z,49.19
2022-07-31T23:08:53.590Z,50.07
2022-07-31T23:11:22.671Z,49.56
2022-07-31T23:13:50.329Z,49.30
2022-07-31T23:16:18.191Z,49.53
2022-07-31T23:18:47.256Z,49.16
2022-07-31T23:21:14.918Z,48.89
2022-07-31T23:23:49.022Z,48.75
2022-07-31T23:26:18.343Z,47.59
2022-07-31T23:28:45.977Z,46.92
2022-07-31T23:31:13.577Z,48.04
2022-07-31T23:33:41.469Z,47.12
2022-07-31T23:36:10.521Z,47.28
2022-07-31T23:38:38.364Z,46.23
2022-07-31T23:41:06.114Z,46.05
2022-07-31T23:43:32.746Z,46.23
2022-07-31T23:46:00.436Z,46.39
2022-07-31T23:48:29.221Z,46.53
2022-07-31T23:50:57.860Z,46.02
2022-07-31T23:53:26.836Z,46.94
2022-07-31T23:55:54.456Z,47.19
2022-07-31T23:58:22.171Z,46.90
